createdAt,value
2018-08-16T02:49:14.314Z,17.33
2018-08-16T02:57:33.378Z,17.12
2018-08-16T03:13:54.289Z,16.8
2018-08-16T05:25:11.846Z,20.9
2018-08-16T05:27:10.034Z,21.37
2018-08-16T05:28:14.711Z,21.55
2018-08-16T05:29:27.532Z,21.66
2018-08-16T05:30:10.660Z,21.83
2018-08-16T05:30:51.035Z,21.99
2018-08-16T05:31:31.484Z,21.99
2018-08-16T05:32:11.917Z,22.09
2018-08-16T05:32:52.363Z,22.33
2018-08-16T05:33:32.769Z,22.35
2018-08-16T05:34:13.203Z,22.42
2018-08-16T05:34:53.623Z,22.56
2018-08-16T05:35:34.002Z,22.64
2018-08-16T05:36:14.397Z,22.82
2018-08-16T05:36:54.744Z,22.88
2018-08-16T05:37:35.256Z,22.96
2018-08-16T05:38:15.642Z,23.01
2018-08-16T05:38:56.031Z,23.14
2018-08-16T05:39:36.397Z,23.22
2018-08-16T05:40:16.883Z,23.29
2018-08-16T05:40:57.213Z,23.44
2018-08-16T05:41:37.647Z,23.52
2018-08-16T05:42:18.114Z,23.54
2018-08-16T05:42:58.501Z,23.69
2018-08-16T05:43:38.887Z,23.82
2018-08-16T05:44:19.371Z,23.86
2018-08-16T05:44:59.762Z,23.94
2018-08-16T05:45:40.174Z,24.14
2018-08-16T05:46:20.668Z,24.23
2018-08-16T05:47:01.100Z,24.36
2018-08-16T05:47:41.672Z,24.39
2018-08-16T05:48:22.192Z,24.45
2018-08-16T05:49:02.767Z,24.63
2018-08-16T05:49:43.192Z,24.71
2018-08-16T05:50:23.541Z,24.83
2018-08-16T05:51:04.012Z,24.97
2018-08-16T05:51:44.526Z,24.99
2018-08-16T05:52:24.949Z,25.09
2018-08-16T05:53:05.506Z,25.24
2018-08-16T05:53:46.222Z,25.23
2018-08-16T05:54:26.770Z,25.26
2018-08-16T05:55:07.534Z,25.34
2018-08-16T05:55:48.456Z,25.51
2018-08-16T05:56:28.574Z,25.64
2018-08-16T05:57:09.085Z,25.74
2018-08-16T05:57:49.434Z,25.83
2018-08-16T05:58:29.805Z,25.93
2018-08-16T05:59:10.213Z,26.09
2018-08-16T05:59:50.806Z,26.11
2018-08-16T06:00:31.228Z,26.2
2018-08-16T06:01:11.680Z,26.32
2018-08-16T06:01:52.064Z,26.46
2018-08-16T06:02:32.464Z,26.53
2018-08-16T06:03:12.912Z,26.6
2018-08-16T06:03:53.356Z,26.57
2018-08-16T06:04:33.941Z,26.66
2018-08-16T06:05:14.411Z,26.91
2018-08-16T06:05:54.755Z,26.97
2018-08-16T06:06:35.256Z,27.13
2018-08-16T06:07:15.680Z,27.38
2018-08-16T06:07:56.149Z,27.48
2018-08-16T06:08:36.582Z,27.68
2018-08-16T06:09:31.930Z,27.86
2018-08-16T06:10:12.367Z,27.91
2018-08-16T06:10:52.729Z,27.98
2018-08-16T06:11:33.246Z,28.06
2018-08-16T06:12:13.606Z,28.02
2018-08-16T06:12:54.108Z,28.18
2018-08-16T06:13:34.797Z,28.2
2018-08-16T06:14:15.254Z,28.27
2018-08-16T06:14:55.604Z,28.33
2018-08-16T06:15:36.028Z,28.35
2018-08-16T06:16:16.485Z,28.35
2018-08-16T06:16:56.914Z,28.43
2018-08-16T06:17:37.295Z,28.33
2018-08-16T06:18:17.746Z,28.39
2018-08-16T06:18:58.289Z,28.25
2018-08-16T06:19:46.194Z,28.35
2018-08-16T06:20:30.351Z,28.46
2018-08-16T06:23:45.402Z,28.64
2018-08-16T06:29:10.007Z,28.74
2018-08-16T06:30:23.227Z,28.95
2018-08-16T06:31:32.901Z,28.82
2018-08-16T06:32:41.402Z,28.94
2018-08-16T06:33:57.959Z,28.94
2018-08-16T06:35:11.243Z,29.21
2018-08-16T06:36:21.145Z,29.23
2018-08-16T06:37:37.461Z,29.37
2018-08-16T06:38:50.978Z,29.62
2018-08-16T06:40:01.235Z,29.71
2018-08-16T06:41:18.917Z,29.76
2018-08-16T06:42:27.871Z,29.95
2018-08-16T06:43:38.131Z,29.95
2018-08-16T06:44:48.024Z,29.94
2018-08-16T06:45:26.430Z,29.97
2018-08-16T06:46:06.796Z,29.91
2018-08-16T06:46:47.301Z,29.88
2018-08-16T06:47:27.648Z,29.92
2018-08-16T06:48:08.176Z,29.81
2018-08-16T06:48:48.528Z,29.92
2018-08-16T06:49:28.981Z,29.95
2018-08-16T06:50:09.497Z,29.94
2018-08-16T06:50:50.137Z,29.91
2018-08-16T06:51:30.580Z,29.97
2018-08-16T06:52:11.024Z,30.04
2018-08-16T06:52:51.381Z,30.08
2018-08-16T06:53:31.882Z,30.13
2018-08-16T06:54:12.493Z,30.11
2018-08-16T06:54:52.819Z,30.16
2018-08-16T06:55:33.240Z,30.08
2018-08-16T06:56:13.746Z,30.07
2018-08-16T06:56:54.248Z,30.04
2018-08-16T06:57:34.530Z,30.13
2018-08-16T06:58:15.040Z,30.15
2018-08-16T06:58:55.472Z,30.08
2018-08-16T06:59:35.890Z,30.16
2018-08-16T07:00:16.853Z,30.13
2018-08-16T07:00:57.133Z,30.21
2018-08-16T07:01:37.681Z,30.25
2018-08-16T07:02:18.149Z,30.23
2018-08-16T07:02:58.536Z,30.19
2018-08-16T07:03:38.929Z,30.28
2018-08-16T07:04:19.409Z,30.16
2018-08-16T07:04:59.831Z,30.16
2018-08-16T07:05:40.249Z,30.26
2018-08-16T07:06:20.712Z,30.28
2018-08-16T07:07:01.117Z,30.38
2018-08-16T07:07:41.585Z,30.3
2018-08-16T07:08:21.920Z,30.18
2018-08-16T07:09:02.332Z,30.16
2018-08-16T07:09:42.782Z,30.13
2018-08-16T07:10:23.268Z,30.19
2018-08-16T07:11:03.637Z,30.06
2018-08-16T07:11:44.067Z,29.95
2018-08-16T07:12:24.558Z,29.92
2018-08-16T07:13:04.965Z,29.97
2018-08-16T07:13:45.370Z,30.03
2018-08-16T07:14:25.800Z,30.08
2018-08-16T07:15:06.144Z,30.22
2018-08-16T07:15:46.725Z,30.26
2018-08-16T07:16:27.113Z,30.4
2018-08-16T07:17:07.558Z,30.46
2018-08-16T07:17:48.052Z,30.66
2018-08-16T07:18:28.764Z,30.79
2018-08-16T07:19:09.128Z,30.81
2018-08-16T07:19:50.054Z,30.86
2018-08-16T07:20:30.421Z,31.09
2018-08-16T07:21:11.668Z,31.25
2018-08-16T07:21:52.006Z,31.22
2018-08-16T07:22:33.134Z,31.28
2018-08-16T07:23:13.120Z,31.41
2018-08-16T07:23:54.684Z,31.56
2018-08-16T07:24:34.859Z,31.59
2018-08-16T07:25:16.011Z,31.74
2018-08-16T07:25:57.064Z,31.65
2018-08-16T07:26:37.529Z,31.76
2018-08-16T07:27:18.229Z,31.76
2018-08-16T07:27:59.062Z,31.78
2018-08-16T07:28:40.932Z,31.79
2018-08-16T07:29:21.604Z,31.78
2018-08-16T07:30:02.439Z,31.87
2018-08-16T07:30:43.723Z,31.95
2018-08-16T07:31:25.144Z,32.07
2018-08-16T07:32:05.416Z,32.05
2018-08-16T07:32:46.493Z,32.21
2018-08-16T07:33:27.650Z,32.17
2018-08-16T07:34:08.225Z,32.25
2018-08-16T07:34:49.149Z,32.1
2018-08-16T07:35:30.401Z,32.19
2018-08-16T07:36:11.193Z,32.13
2018-08-16T07:36:52.020Z,32.19
2018-08-16T07:37:32.757Z,32.27
2018-08-16T07:38:13.532Z,32.22
2018-08-16T07:38:54.132Z,32.06
2018-08-16T07:39:37.683Z,32.02
2018-08-16T07:40:19.089Z,32.07
2018-08-16T07:40:59.616Z,32.17
2018-08-16T07:41:40.095Z,32.13
2018-08-16T07:42:21.010Z,32.07
2018-08-16T07:43:01.570Z,31.98
2018-08-16T07:43:42.369Z,31.87
2018-08-16T07:44:23.209Z,31.88
2018-08-16T07:45:03.843Z,31.87
2018-08-16T07:45:45.847Z,31.9
2018-08-16T07:46:26.603Z,31.87
2018-08-16T07:47:07.469Z,31.92
2018-08-16T07:47:48.994Z,31.95
2018-08-16T07:48:30.206Z,32.1
2018-08-16T07:49:11.265Z,32.14
2018-08-16T07:49:52.655Z,32.25
2018-08-16T07:50:32.539Z,32.31
2018-08-16T07:51:13.320Z,32.34
2018-08-16T07:51:54.302Z,32.35
2018-08-16T07:57:23.697Z,32.59
2018-08-16T07:58:45.872Z,32.63
2018-08-16T08:00:05.498Z,32.56
2018-08-16T08:02:23.089Z,32.51
2018-08-16T08:04:56.389Z,32.59
2018-08-16T08:06:13.894Z,32.68
2018-08-16T08:07:29.925Z,32.73
2018-08-16T08:09:02.874Z,32.83
2018-08-16T08:10:27.146Z,32.87
2018-08-16T08:11:37.467Z,32.83
2018-08-16T08:12:48.365Z,32.76
2018-08-16T08:13:41.389Z,32.65
2018-08-16T08:14:21.977Z,32.69
2018-08-16T08:15:02.473Z,32.77
2018-08-16T08:15:42.852Z,32.66
2018-08-16T08:16:23.613Z,32.54
2018-08-16T08:17:04.422Z,32.66
2018-08-16T08:17:44.866Z,32.77
2018-08-16T08:18:25.310Z,32.76
2018-08-16T08:19:06.452Z,32.8
2018-08-16T08:20:04.826Z,32.87
2018-08-16T08:21:01.054Z,32.98
2018-08-16T08:21:41.537Z,32.85
2018-08-16T08:26:46.487Z,33.12
2018-08-16T08:27:55.438Z,33.11
2018-08-16T08:29:06.051Z,33.12
2018-08-16T08:30:34.928Z,33.18
2018-08-16T08:32:27.113Z,33.21
2018-08-16T08:34:23.838Z,33.4
2018-08-16T08:36:23.634Z,33.38
2018-08-16T08:37:52.651Z,33.02
2018-08-16T08:40:04.189Z,33.24
2018-08-16T08:44:28.553Z,33.62
2018-08-16T08:48:32.196Z,33.82
2018-08-16T08:49:12.609Z,33.86
2018-08-16T08:49:53.438Z,33.9
2018-08-16T08:50:34.038Z,33.99
2018-08-16T08:51:14.822Z,33.97
2018-08-16T08:51:55.222Z,33.99
2018-08-16T08:52:35.667Z,34.14
2018-08-16T08:53:16.192Z,34.11
2018-08-16T08:54:00.508Z,34.18
2018-08-16T08:54:41.149Z,34.31
2018-08-16T08:55:21.904Z,34.38
2018-08-16T08:56:02.559Z,34.45
2018-08-16T08:56:50.415Z,34.53
2018-08-16T08:57:31.231Z,34.46
2018-08-16T08:58:12.281Z,34.38
2018-08-16T08:58:52.597Z,34.4
2018-08-16T08:59:33.341Z,34.37
2018-08-16T09:00:14.834Z,34.4
2018-08-16T09:00:56.444Z,34.4
2018-08-16T09:01:38.272Z,34.56
2018-08-16T09:02:21.354Z,34.38
2018-08-16T09:03:03.152Z,34.36
2018-08-16T09:03:44.801Z,34.27
2018-08-16T09:04:24.989Z,34.16
2018-08-16T09:05:05.915Z,34.19
2018-08-16T09:05:47.394Z,34.12
2018-08-16T09:06:29.275Z,34.01
2018-08-16T09:07:11.195Z,33.9
2018-08-16T09:07:51.874Z,33.92
2018-08-16T09:08:32.486Z,33.84
2018-08-16T09:09:13.827Z,33.9
2018-08-16T09:09:54.724Z,33.97
2018-08-16T09:10:36.546Z,33.87
2018-08-16T09:11:16.292Z,33.9
2018-08-16T09:11:58.169Z,33.99
2018-08-16T09:12:39.621Z,34.08
2018-08-16T09:13:20.455Z,34.12
2018-08-16T09:14:01.962Z,34.19
2018-08-16T09:14:42.855Z,34.26
2018-08-16T09:15:24.255Z,34.5
2018-08-16T09:16:04.375Z,34.58
2018-08-16T09:16:45.167Z,34.56
2018-08-16T09:17:25.978Z,34.58
2018-08-16T09:18:07.809Z,34.52
2018-08-16T09:18:48.269Z,34.6
2018-08-16T09:19:30.057Z,34.67
2018-08-16T09:20:15.341Z,34.69
2018-08-16T09:20:57.937Z,34.72
2018-08-16T09:22:07.131Z,34.8
2018-08-16T09:22:49.262Z,34.78
2018-08-16T09:23:30.759Z,34.71
2018-08-16T09:24:10.530Z,34.56
2018-08-16T09:24:51.491Z,34.46
2018-08-16T09:25:32.206Z,34.5
2018-08-16T09:26:13.785Z,34.69
2018-08-16T09:26:54.320Z,34.78
2018-08-16T09:27:35.134Z,34.75
2018-08-16T09:28:15.690Z,34.93
2018-08-16T09:28:56.803Z,35
2018-08-16T09:39:05.164Z,35.81
2018-08-16T09:40:41.298Z,35.78
2018-08-16T09:41:22.444Z,35.91
2018-08-16T09:42:03.381Z,35.87
2018-08-16T09:42:44.806Z,36.02
2018-08-16T09:43:26.113Z,36
2018-08-16T09:44:07.459Z,35.98
2018-08-16T09:46:41.804Z,36.08
2018-08-16T09:51:32.293Z,35.69
2018-08-16T09:53:03.553Z,35.46
2018-08-16T09:54:48.551Z,35.43
2018-08-16T09:56:12.929Z,35.46
2018-08-16T09:57:12.896Z,35.55
2018-08-16T09:57:53.301Z,35.49
2018-08-16T09:58:33.757Z,35.37
2018-08-16T09:59:14.207Z,35.43
2018-08-16T09:59:55.515Z,35.43
2018-08-16T10:00:35.425Z,35.55
2018-08-16T10:01:16.317Z,35.36
2018-08-16T10:01:56.756Z,35.44
2018-08-16T10:02:37.781Z,35.55
2018-08-16T10:03:18.237Z,35.61
2018-08-16T10:03:58.990Z,35.59
2018-08-16T10:04:39.384Z,35.56
2018-08-16T10:05:20.168Z,35.64
2018-08-16T10:06:01.005Z,35.69
2018-08-16T10:06:42.779Z,35.85
2018-08-16T10:07:22.951Z,35.85
2018-08-16T10:08:03.346Z,35.91
2018-08-16T10:08:44.102Z,36.05
2018-08-16T10:09:24.613Z,36.05
2018-08-16T10:10:05.145Z,36.16
2018-08-16T10:10:45.948Z,36.28
2018-08-16T10:11:26.703Z,36.41
2018-08-16T10:12:07.706Z,36.28
2018-08-16T10:12:48.512Z,36.3
2018-08-16T10:13:29.427Z,36.4
2018-08-16T10:14:11.012Z,36.28
2018-08-16T10:14:51.225Z,36.44
2018-08-16T10:15:31.936Z,36.44
2018-08-16T10:16:12.305Z,36.38
2018-08-16T10:16:52.664Z,36.4
2018-08-16T10:17:33.142Z,36.3
2018-08-16T10:18:13.553Z,36.4
2018-08-16T10:18:53.996Z,36.52
2018-08-16T10:19:34.478Z,36.59
2018-08-16T10:20:15.097Z,36.21
2018-08-16T10:20:55.598Z,35.92
2018-08-16T10:21:36.106Z,35.68
2018-08-16T10:22:16.533Z,35.59
2018-08-16T10:22:57.013Z,35.58
2018-08-16T10:23:37.402Z,35.31
2018-08-16T10:24:17.825Z,35.25
2018-08-16T10:24:58.373Z,35.15
2018-08-16T10:25:38.832Z,35.17
2018-08-16T10:26:19.214Z,35.34
2018-08-16T10:26:59.682Z,35.29
2018-08-16T10:27:40.107Z,35.32
2018-08-16T10:28:20.545Z,35.42
2018-08-16T10:29:00.985Z,35.61
2018-08-16T11:07:05.846Z,36
2018-08-16T11:08:05.453Z,36.18
2018-08-16T11:08:45.808Z,36.15
2018-08-16T11:09:26.265Z,36.12
2018-08-16T11:10:06.721Z,35.92
2018-08-16T11:10:47.226Z,35.81
2018-08-16T11:11:27.592Z,35.55
2018-08-16T11:12:08.098Z,35.46
2018-08-16T11:12:48.508Z,35.25
2018-08-16T11:13:28.899Z,34.87
2018-08-16T11:14:10.227Z,34.48
2018-08-16T11:14:51.172Z,34.09
2018-08-16T11:15:31.594Z,33.99
2018-08-16T11:16:12.592Z,33.86
2018-08-16T11:16:53.206Z,33.94
2018-08-16T11:17:33.607Z,34.08
2018-08-16T11:18:14.441Z,34.26
2018-08-16T11:18:54.768Z,34.36
2018-08-16T11:19:36.120Z,34.37
2018-08-16T11:20:17.468Z,34.16
2018-08-16T11:21:00.184Z,34.12
2018-08-16T11:21:40.550Z,34.06
2018-08-16T11:22:20.855Z,33.92
2018-08-16T11:23:01.874Z,33.84
2018-08-16T11:23:42.157Z,33.52
2018-08-16T11:24:23.696Z,33.28
2018-08-16T11:28:41.259Z,32.35
2018-08-16T11:30:13.459Z,32.43
2018-08-16T11:30:53.546Z,32.77
2018-08-16T11:31:34.012Z,32.81
2018-08-16T11:32:14.488Z,32.91
2018-08-16T11:32:54.820Z,33
2018-08-16T11:33:35.316Z,33.31
2018-08-16T11:34:15.947Z,33.59
2018-08-16T11:34:56.407Z,33.81
2018-08-16T11:35:36.954Z,33.94
2018-08-16T11:36:17.592Z,33.96
2018-08-16T11:36:58.035Z,33.99
2018-08-16T11:37:38.591Z,34.05
2018-08-16T11:38:19.278Z,34.09
2018-08-16T11:38:59.494Z,34.18
2018-08-16T11:39:40.915Z,34.09
2018-08-16T11:40:20.673Z,34.06
2018-08-16T11:41:02.626Z,34.12
2018-08-16T11:41:42.905Z,34.26
2018-08-16T11:42:23.301Z,34.45
2018-08-16T11:43:03.680Z,34.61
2018-08-16T11:43:44.950Z,34.56
2018-08-16T11:44:25.712Z,34.61
2018-08-16T11:45:06.291Z,34.43
2018-08-16T11:45:46.842Z,34.28
2018-08-16T11:46:27.280Z,34.26
2018-08-16T11:47:08.482Z,34.18
2018-08-16T11:47:49.112Z,34.28
2018-08-16T11:48:29.963Z,34.34
2018-08-16T11:49:10.614Z,34.58
2018-08-16T11:49:51.312Z,34.86
2018-08-16T11:50:31.994Z,34.98
2018-08-16T11:51:12.538Z,35.18
2018-08-16T11:51:53.197Z,35.36
2018-08-16T11:52:33.691Z,35.61
2018-08-16T11:53:14.192Z,35.66
2018-08-16T11:53:54.841Z,35.78
2018-08-16T11:54:35.339Z,35.83
2018-08-16T11:55:15.789Z,36
2018-08-16T11:55:56.293Z,36.25
2018-08-16T11:56:36.669Z,36.3
2018-08-16T11:57:17.291Z,36.5
2018-08-16T11:57:58.087Z,36.48
2018-08-16T11:58:47.130Z,36.37
2018-08-16T11:59:27.330Z,36.22
2018-08-16T12:00:07.727Z,36.16
2018-08-16T12:00:48.211Z,36.16
2018-08-16T12:01:28.638Z,36.15
2018-08-16T12:02:09.061Z,36.06
2018-08-16T12:02:49.499Z,35.87
2018-08-16T12:03:29.931Z,35.73
2018-08-16T12:04:10.303Z,35.59
2018-08-16T12:04:50.785Z,35.47
2018-08-16T12:05:31.234Z,35.18
2018-08-16T12:06:11.760Z,34.9
2018-08-16T12:06:52.450Z,34.58
2018-08-16T12:07:32.970Z,34.33
2018-08-16T12:08:13.440Z,34.06
2018-08-16T12:08:53.907Z,33.89
2018-08-16T12:09:34.271Z,33.65
2018-08-16T12:10:14.722Z,33.37
2018-08-16T12:10:55.191Z,33.35
2018-08-16T12:11:35.561Z,33.15
2018-08-16T12:12:16.004Z,33.11
2018-08-16T12:12:56.483Z,33.24
2018-08-16T12:13:36.810Z,33.34
2018-08-16T12:14:17.332Z,33.47
2018-08-16T12:14:57.632Z,33.34
2018-08-16T12:15:38.132Z,33.5
2018-08-16T12:16:18.502Z,33.66
2018-08-16T12:16:59.223Z,33.65
2018-08-16T12:17:39.627Z,33.66
2018-08-16T12:18:20.069Z,33.55
2018-08-16T12:19:00.571Z,33.47
2018-08-16T12:19:41.147Z,33.53
2018-08-16T12:20:21.779Z,33.56
2018-08-16T12:21:02.125Z,33.59
2018-08-16T12:21:42.567Z,33.77
2018-08-16T12:22:23.272Z,33.72
2018-08-16T12:23:04.134Z,33.94
2018-08-16T12:23:44.229Z,34.09
2018-08-16T12:24:24.710Z,33.97
2018-08-16T12:25:05.433Z,33.9
2018-08-16T12:25:45.616Z,33.7
2018-08-16T12:26:26.305Z,33.68
2018-08-16T12:27:06.854Z,33.78
2018-08-16T12:27:47.302Z,33.89
2018-08-16T12:28:27.811Z,34.08
2018-08-16T12:29:08.288Z,34.16
2018-08-16T12:29:48.767Z,34.33
2018-08-16T12:30:29.321Z,34.6
2018-08-16T12:31:09.773Z,34.75
2018-08-16T12:31:50.183Z,35.07
2018-08-16T12:32:30.803Z,35.29
2018-08-16T12:33:11.188Z,35.5
2018-08-16T12:33:51.771Z,35.76
2018-08-16T12:34:32.124Z,35.76
2018-08-16T12:35:12.559Z,35.8
2018-08-16T12:35:53.258Z,35.83
2018-08-16T12:36:33.719Z,35.91
2018-08-16T12:37:14.954Z,35.99
2018-08-16T12:37:58.317Z,36.21
2018-08-16T12:38:38.607Z,36.38
2018-08-16T12:39:19.212Z,36.57
2018-08-16T12:39:59.905Z,36.56
2018-08-16T12:40:40.787Z,36.72
2018-08-16T12:42:44.302Z,36.94
2018-08-16T12:43:36.544Z,37.05
2018-08-16T12:44:17.126Z,36.9
2018-08-16T12:44:57.783Z,36.71
2018-08-16T12:45:38.154Z,36.72
2018-08-16T12:46:22.864Z,36.5
2018-08-16T12:47:02.796Z,36.31
2018-08-16T12:47:43.375Z,36.23
2018-08-16T12:48:23.874Z,36.23
2018-08-16T12:49:04.271Z,36.21
2018-08-16T12:49:44.601Z,35.99
2018-08-16T12:50:25.351Z,35.8
2018-08-16T12:51:06.291Z,35.76
2018-08-16T12:51:46.084Z,35.68
2018-08-16T12:52:28.566Z,35.74
2018-08-16T12:53:08.843Z,35.56
2018-08-16T12:54:08.182Z,35.5
2018-08-16T12:55:53.887Z,35.56
2018-08-16T12:56:46.830Z,35.46
2018-08-16T12:57:28.643Z,35.36
2018-08-16T12:58:09.246Z,35.25
2018-08-16T12:58:49.664Z,35.22
2018-08-16T12:59:30.231Z,35.28
2018-08-16T13:00:10.577Z,35.36
2018-08-16T13:00:51.305Z,35.4
2018-08-16T13:01:31.684Z,35.61
2018-08-16T13:02:12.236Z,35.66
2018-08-16T13:02:52.880Z,35.69
2018-08-16T13:03:34.581Z,35.74
2018-08-16T13:04:15.223Z,35.89
2018-08-16T13:04:55.621Z,35.84
2018-08-16T13:05:37.484Z,35.87
2018-08-16T13:06:18.271Z,36.06
2018-08-16T13:06:59.980Z,36.05
2018-08-16T13:10:38.047Z,35.07
2018-08-16T13:12:53.595Z,34.75
2018-08-16T13:13:32.610Z,34.64
2018-08-16T13:14:13.844Z,34.5
2018-08-16T13:14:53.823Z,34.42
2018-08-16T13:15:34.574Z,34.37
2018-08-16T13:16:15.624Z,34.31
2018-08-16T13:16:56.565Z,34.33
2018-08-16T13:17:38.498Z,34.21
2018-08-16T13:18:18.509Z,34.14
2018-08-16T13:18:58.914Z,34.27
2018-08-16T13:19:40.002Z,34.34
2018-08-16T13:20:20.589Z,34.58
2018-08-16T13:21:01.754Z,34.64
2018-08-16T13:21:42.173Z,34.9
2018-08-16T13:23:10.020Z,35.25
2018-08-16T13:23:50.522Z,35.34
2018-08-16T13:24:31.483Z,35.61
2018-08-16T13:25:11.890Z,35.68
2018-08-16T13:25:52.307Z,35.68
2018-08-16T13:26:32.781Z,35.84
2018-08-16T13:27:13.234Z,36.02
2018-08-16T13:27:53.633Z,36.21
2018-08-16T13:28:34.412Z,36.21
2018-08-16T13:29:14.717Z,36.46
2018-08-16T13:29:55.306Z,36.57
2018-08-16T13:30:35.772Z,36.69
2018-08-16T13:31:16.580Z,36.83
2018-08-16T13:31:56.718Z,36.74
2018-08-16T13:32:37.502Z,36.69
2018-08-16T13:33:18.300Z,36.67
2018-08-16T13:33:59.103Z,36.69
2018-08-16T13:34:39.627Z,36.74
2018-08-16T13:35:20.877Z,36.82
2018-08-16T13:36:00.704Z,36.69
2018-08-16T13:36:41.096Z,36.65
2018-08-16T13:37:21.768Z,36.56
2018-08-16T13:38:02.168Z,36.67
2018-08-16T13:38:42.652Z,36.67
2018-08-16T13:39:23.164Z,36.6
2018-08-16T13:40:03.576Z,36.65
2018-08-16T13:40:44.112Z,36.79
2018-08-16T13:41:24.586Z,36.78
2018-08-16T13:42:05.219Z,36.75
2018-08-16T13:42:45.757Z,36.79
2018-08-16T13:43:26.213Z,36.68
2018-08-16T13:44:06.981Z,36.74
2018-08-16T13:44:50.662Z,36.83
2018-08-16T13:45:37.137Z,36.9
2018-08-16T13:46:17.573Z,36.9
2018-08-16T13:46:57.964Z,37.05
2018-08-16T13:47:38.749Z,37.15
2018-08-16T13:48:19.237Z,37.15
2018-08-16T13:48:59.725Z,37.3
2018-08-16T13:49:41.364Z,37.42
2018-08-16T13:50:21.854Z,37.62
2018-08-16T13:51:02.155Z,37.7
2018-08-16T13:51:44.346Z,37.81
2018-08-16T13:52:25.154Z,37.87
2018-08-16T13:53:05.604Z,37.95
2018-08-16T13:53:46.325Z,38.04
2018-08-16T13:54:26.835Z,38.06
2018-08-16T13:55:08.429Z,37.99
2018-08-16T13:55:48.755Z,37.75
2018-08-16T13:56:30.170Z,37.59
2018-08-16T13:57:10.783Z,37.35
2018-08-16T13:57:51.403Z,37.28
2018-08-16T13:58:32.889Z,37.27
2018-08-16T13:59:12.942Z,37.35
2018-08-16T13:59:54.373Z,37.08
2018-08-16T14:00:34.156Z,37.04
2018-08-16T14:01:15.185Z,36.78
2018-08-16T14:01:56.882Z,36.91
2018-08-16T14:02:36.715Z,36.74
2018-08-16T14:03:17.145Z,36.69
2018-08-16T14:03:57.752Z,36.52
2018-08-16T14:04:38.864Z,36.41
2018-08-16T14:05:19.210Z,36.46
2018-08-16T14:06:00.001Z,36.5
2018-08-16T14:06:40.585Z,36.53
2018-08-16T14:07:21.066Z,36.6
2018-08-16T14:08:01.691Z,36.49
2018-08-16T14:08:42.196Z,36.41
2018-08-16T14:09:22.799Z,36.5
2018-08-16T14:10:03.736Z,36.48
2018-08-16T14:10:44.727Z,36.5
2018-08-16T14:14:24.752Z,36.33
2018-08-16T14:15:36.978Z,36.22
2018-08-16T14:16:38.613Z,35.85
2018-08-16T14:17:19.064Z,35.77
2018-08-16T14:17:59.747Z,35.43
2018-08-16T14:18:41.601Z,35.18
2018-08-16T14:19:25.038Z,34.88
2018-08-16T14:20:05.214Z,34.75
2018-08-16T14:20:47.227Z,34.65
2018-08-16T14:21:30.758Z,34.45
2018-08-16T14:22:12.130Z,34.4
2018-08-16T14:22:53.710Z,34.46
2018-08-16T14:23:33.653Z,34.37
2018-08-16T14:24:14.090Z,34.52
2018-08-16T14:24:55.264Z,34.63
2018-08-16T14:25:35.891Z,34.69
2018-08-16T14:26:16.783Z,34.8
2018-08-16T14:26:57.333Z,34.93
2018-08-16T14:27:38.269Z,35.12
2018-08-16T14:28:19.206Z,35.27
2018-08-16T14:29:00.370Z,35.34
2018-08-16T14:29:41.023Z,35.46
2018-08-16T14:30:21.905Z,35.56
2018-08-16T14:31:02.558Z,35.74
2018-08-16T14:31:43.273Z,35.77
2018-08-16T14:32:24.914Z,35.87
2018-08-16T14:33:05.708Z,35.99
2018-08-16T14:33:45.741Z,36.18
2018-08-16T14:34:26.417Z,36.27
2018-08-16T14:35:07.838Z,36.38
2018-08-16T14:35:47.888Z,36.53
2018-08-16T14:36:29.133Z,36.5
2018-08-16T14:37:09.943Z,36.72
2018-08-16T14:37:50.717Z,36.69
2018-08-16T14:38:31.843Z,36.75
2018-08-16T14:39:13.198Z,36.89
2018-08-16T14:39:53.168Z,36.93
2018-08-16T14:40:33.888Z,37.02
2018-08-16T14:41:14.475Z,37.09
2018-08-16T14:41:54.923Z,37.13
2018-08-16T14:42:36.210Z,37.24
2018-08-16T14:43:16.285Z,37.24
2018-08-16T14:43:56.829Z,37.21
2018-08-16T14:44:37.565Z,37.27
2018-08-16T14:45:18.021Z,37.3
2018-08-16T14:45:58.456Z,37.35
2018-08-16T14:46:38.960Z,37.38
2018-08-16T14:47:19.403Z,37.39
2018-08-16T14:47:59.999Z,37.43
2018-08-16T14:48:40.303Z,37.38
2018-08-16T14:49:20.833Z,37.35
2018-08-16T14:50:04.218Z,37.23
2018-08-16T14:50:44.721Z,37.24
2018-08-16T14:51:27.086Z,37.2
2018-08-16T14:52:07.732Z,37.2
2018-08-16T14:52:48.264Z,37.2
2018-08-16T14:53:29.192Z,37.06
2018-08-16T14:54:09.713Z,37.06
2018-08-16T14:54:50.052Z,37.12
2018-08-16T14:55:30.541Z,37.18
2018-08-16T14:56:11.149Z,37.13
2018-08-16T14:56:51.691Z,37.15
2018-08-16T14:57:32.290Z,37.08
2018-08-16T14:58:12.672Z,36.9
2018-08-16T14:58:54.759Z,36.71
2018-08-16T14:59:36.185Z,36.71
2018-08-16T15:00:16.878Z,36.62
2018-08-16T15:00:58.116Z,36.68
2018-08-16T15:01:39.143Z,36.72
2018-08-16T15:02:20.321Z,36.77
2018-08-16T15:03:01.573Z,36.86
2018-08-16T15:03:42.180Z,36.75
2018-08-16T15:04:22.684Z,36.89
2018-08-16T15:05:03.176Z,36.82
2018-08-16T15:05:45.723Z,36.9
2018-08-16T15:06:26.072Z,36.89
2018-08-16T15:07:06.726Z,36.84
2018-08-16T15:07:55.362Z,36.91
2018-08-16T15:08:37.161Z,36.82
2018-08-16T15:09:16.613Z,36.75
2018-08-16T15:10:07.987Z,36.6
2018-08-16T15:10:51.196Z,36.53
2018-08-16T15:11:31.609Z,36.46
2018-08-16T15:12:13.771Z,36.48
2018-08-16T15:12:54.300Z,36.48
2018-08-16T15:13:34.873Z,36.43
2018-08-16T15:14:15.266Z,36.52
2018-08-16T15:14:56.466Z,36.53
2018-08-16T15:15:37.943Z,36.44
2018-08-16T15:16:19.845Z,36.46
2018-08-16T15:17:00.568Z,36.31
2018-08-16T15:17:41.382Z,36.34
2018-08-16T15:18:22.040Z,36.44
2018-08-16T15:19:02.624Z,36.38
2018-08-16T15:19:43.218Z,36.3
2018-08-16T15:20:23.615Z,36.25
2018-08-16T15:21:04.093Z,36.19
2018-08-16T15:21:44.446Z,35.95
2018-08-16T15:22:24.984Z,35.93
2018-08-16T15:23:05.763Z,35.83
2018-08-16T15:23:46.269Z,35.87
2018-08-16T15:24:26.760Z,35.81
2018-08-16T15:25:07.060Z,35.71
2018-08-16T15:25:47.563Z,35.68
2018-08-16T15:26:27.994Z,35.66
2018-08-16T15:27:08.433Z,35.66
2018-08-16T15:27:48.850Z,35.71
2018-08-16T15:28:29.296Z,35.65
2018-08-16T15:29:09.857Z,35.52
2018-08-16T15:29:50.276Z,35.59
2018-08-16T15:30:30.818Z,35.73
2018-08-16T15:31:11.754Z,35.69
2018-08-16T15:31:51.728Z,35.68
2018-08-16T15:32:32.161Z,35.61
2018-08-16T15:33:13.254Z,35.44
2018-08-16T15:33:53.260Z,35.29
2018-08-16T15:34:34.492Z,35.25
2018-08-16T15:35:15.044Z,35.34
2018-08-16T15:35:55.529Z,35.36
2018-08-16T15:36:35.991Z,35.34
2018-08-16T15:37:16.623Z,35.32
2018-08-16T15:37:57.055Z,35.34
2018-08-16T15:38:37.495Z,35.36
2018-08-16T15:39:18.008Z,35.46
2018-08-16T15:39:58.381Z,35.4
2018-08-16T15:40:38.904Z,35.46
2018-08-16T15:41:19.390Z,35.34
2018-08-16T15:41:59.870Z,35.36
2018-08-16T15:42:40.359Z,35.34
2018-08-16T15:43:20.840Z,35.47
2018-08-16T15:44:01.200Z,35.32
2018-08-16T15:44:41.661Z,35.25
2018-08-16T15:45:22.118Z,35.07
2018-08-16T15:46:03.308Z,34.94
2018-08-16T15:46:43.236Z,34.99
2018-08-16T15:47:24.801Z,34.87
2018-08-16T15:48:06.067Z,34.75
2018-08-16T15:48:46.604Z,34.8
2018-08-16T15:49:27.917Z,34.71
2018-08-16T15:50:08.521Z,34.69
2018-08-16T15:50:48.968Z,34.71
2018-08-16T15:51:29.873Z,34.67
2018-08-16T15:52:10.070Z,34.69
2018-08-16T15:52:50.636Z,34.56
2018-08-16T15:53:31.059Z,34.52
2018-08-16T15:54:11.541Z,34.55
2018-08-16T15:54:51.856Z,34.58
2018-08-16T15:55:33.279Z,34.67
2018-08-16T15:56:14.005Z,34.49
2018-08-16T15:56:54.575Z,34.48
2018-08-16T15:57:35.211Z,34.45
2018-08-16T15:58:15.705Z,34.43
2018-08-16T15:58:56.773Z,34.42
2018-08-16T15:59:36.930Z,34.4
2018-08-16T16:00:17.370Z,34.48
2018-08-16T16:00:57.775Z,34.46
2018-08-16T16:01:38.193Z,34.5
2018-08-16T16:02:18.593Z,34.5
2018-08-16T16:02:59.050Z,34.5
2018-08-16T16:03:39.470Z,34.52
2018-08-16T16:04:19.906Z,34.52
2018-08-16T16:05:00.331Z,34.42
2018-08-16T16:05:40.719Z,34.43
2018-08-16T16:06:21.275Z,34.37
2018-08-16T16:07:01.669Z,34.48
2018-08-16T16:07:42.007Z,34.37
2018-08-16T16:08:22.359Z,34.34
2018-08-16T16:09:02.932Z,34.33
2018-08-16T16:09:43.330Z,34.37
2018-08-16T16:10:23.768Z,34.09
2018-08-16T16:11:04.206Z,34.05
2018-08-16T16:11:44.675Z,34.14
2018-08-16T16:12:25.156Z,34.11
2018-08-16T16:13:05.645Z,34
2018-08-16T16:13:46.979Z,33.96
2018-08-16T16:14:27.476Z,33.87